Time;durP1;ratioP1;P1;durP2;ratioP2;P2;SDS_P1;SDS_P2;PMS_P1;PMS_P2;Temp;Humidity;BMP_temperature;BMP_pressure;BME280_temperature;BME280_humidity;BME280_pressure;Samples;Min_cycle;Max_cycle;Signal;HPM_P1;HPM_P2
2022/08/05 00:00:14;;;;;;;900.83;840.13;;;;;;;30.40;33.13;100614.94;695625;28;66963;-67
2022/08/05 00:00:35;;;;;;;892.72;832.22;;;;;;;30.39;33.22;100611.31;693718;28;137931;-68
2022/08/05 00:00:56;;;;;;;889.42;829.00;;;;;;;30.43;32.62;100617.09;697012;28;22466;-67
2022/08/05 00:01:19;;;;;;;894.72;834.17;;;;;;;30.42;32.79;100610.69;697284;28;45232;-68
2022/08/05 00:01:41;;;;;;;899.53;838.72;;;;;;;30.45;32.53;100617.59;690934;28;68858;-67
2022/08/05 00:02:03;;;;;;;904.85;843.70;;;;;;;30.45;32.92;100612.03;691091;28;46853;-69
2022/08/05 00:02:24;;;;;;;895.13;834.47;;;;;;;30.48;32.75;100622.56;695850;28;19006;-69
2022/08/05 00:02:47;;;;;;;897.72;837.08;;;;;;;30.47;32.62;100627.31;696803;28;22395;-70
2022/08/05 00:03:09;;;;;;;899.25;838.60;;;;;;;30.47;32.87;100618.94;689581;28;68346;-69
2022/08/05 00:03:30;;;;;;;892.25;831.83;;;;;;;30.46;32.77;100614.50;692273;28;22237;-69
2022/08/05 00:03:51;;;;;;;890.92;830.42;;;;;;;30.44;32.76;100619.59;696885;28;22470;-70
2022/08/05 00:04:13;;;;;;;892.30;831.80;;;;;;;30.45;32.50;100625.97;699861;28;22436;-69
2022/08/05 00:04:34;;;;;;;893.20;832.70;;;;;;;30.37;32.58;100616.38;698309;28;45241;-69
2022/08/05 00:04:56;;;;;;;896.15;835.55;;;;;;;30.42;32.58;100619.06;700011;28;45012;-69
2022/08/05 00:05:17;;;;;;;891.55;831.15;;;;;;;30.35;33.15;100615.84;703468;28;21534;-69
2022/08/05 00:05:42;;;;;;;887.45;827.15;;;;;;;30.40;32.99;100621.34;703271;28;22412;-69
2022/08/05 00:06:03;;;;;;;902.72;841.83;;;;;;;30.39;32.79;100621.66;699338;28;114208;-68
2022/08/05 00:06:24;;;;;;;888.83;828.50;;;;;;;30.36;33.16;100617.50;701543;28;22391;-68
2022/08/05 00:06:45;;;;;;;890.15;829.70;;;;;;;30.32;32.84;100611.72;701634;28;22216;-69
2022/08/05 00:07:08;;;;;;;888.35;827.85;;;;;;;30.32;33.03;100617.31;700181;28;42001;-68
2022/08/05 00:07:29;;;;;;;893.97;833.35;;;;;;;30.30;32.67;100614.00;701471;28;46257;-69
2022/08/05 00:07:50;;;;;;;906.17;845.17;;;;;;;30.29;32.87;100617.13;701598;28;22364;-68
2022/08/05 00:08:11;;;;;;;902.78;841.92;;;;;;;30.28;33.19;100601.53;703197;28;22405;-69
2022/08/05 00:08:35;;;;;;;891.50;831.10;;;;;;;30.30;32.91;100614.00;703178;28;23444;-69
2022/08/05 00:08:59;;;;;;;904.05;843.10;;;;;;;30.31;32.72;100606.47;700975;28;91139;-69
2022/08/05 00:09:20;;;;;;;909.22;848.10;;;;;;;30.31;32.72;100607.28;702434;28;68435;-68
2022/08/05 00:09:41;;;;;;;912.83;851.60;;;;;;;30.31;33.04;100612.84;703370;28;45422;-69
2022/08/05 00:10:04;;;;;;;910.55;849.42;;;;;;;30.31;32.65;100607.28;703824;28;22403;-68
2022/08/05 00:10:25;;;;;;;903.00;842.17;;;;;;;30.33;32.58;100605.03;702007;28;68321;-68
2022/08/05 00:10:47;;;;;;;903.40;842.50;;;;;;;30.35;32.80;100601.94;702459;28;22397;-68
2022/08/05 00:11:10;;;;;;;888.60;828.10;;;;;;;30.36;32.60;100607.19;702385;28;22404;-68
2022/08/05 00:11:31;;;;;;;907.35;846.33;;;;;;;30.38;33.00;100604.09;701134;28;67299;-67
2022/08/05 00:11:53;;;;;;;911.25;850.08;;;;;;;30.40;32.46;100607.41;703483;28;22428;-68
2022/08/05 00:12:14;;;;;;;903.22;842.33;;;;;;;30.37;32.59;100599.66;702156;28;68123;-68
2022/08/05 00:12:36;;;;;;;901.70;840.90;;;;;;;30.41;32.64;100602.66;704074;28;22253;-68
2022/08/05 00:12:57;;;;;;;892.90;832.38;;;;;;;30.39;32.80;100608.53;702890;28;17159;-68
2022/08/05 00:13:19;;;;;;;896.08;835.42;;;;;;;30.39;32.38;100602.16;702093;28;22352;-69
2022/08/05 00:13:42;;;;;;;916.70;855.40;;;;;;;30.37;32.80;100602.44;701549;28;68344;-67
2022/08/05 00:14:03;;;;;;;906.38;845.45;;;;;;;30.38;32.40;100604.09;701899;28;68320;-68
2022/08/05 00:14:26;;;;;;;898.83;838.17;;;;;;;30.37;32.39;100608.00;703203;28;22400;-68
2022/08/05 00:14:49;;;;;;;897.90;837.28;;;;;;;30.36;32.58;100603.56;702006;28;45253;-68
2022/08/05 00:15:10;;;;;;;895.50;834.95;;;;;;;30.36;32.34;100609.13;701447;28;68249;-69
2022/08/05 00:15:31;;;;;;;891.70;831.30;;;;;;;30.35;32.32;100604.72;704102;28;22416;-68
2022/08/05 00:15:52;;;;;;;902.08;841.33;;;;;;;30.34;32.38;100608.63;702852;28;22405;-69
2022/08/05 00:16:15;;;;;;;887.55;827.20;;;;;;;30.34;32.64;100612.22;703366;28;45972;-68
2022/08/05 00:16:36;;;;;;;880.80;820.58;;;;;;;30.34;32.75;100611.41;701621;28;45047;-68
2022/08/05 00:16:58;;;;;;;909.72;848.47;;;;;;;30.33;32.26;100609.75;702114;28;45075;-68
2022/08/05 00:17:19;;;;;;;879.25;819.00;;;;;;;30.31;32.54;100607.28;702841;28;22129;-68
2022/08/05 00:17:41;;;;;;;896.22;835.55;;;;;;;30.30;32.94;100608.44;701850;28;19847;-69
2022/08/05 00:18:03;;;;;;;893.25;832.65;;;;;;;30.29;32.84;100608.75;700718;28;45315;-70
2022/08/05 00:18:24;;;;;;;919.22;857.83;;;;;;;30.28;32.98;100609.88;697775;28;45226;-69
2022/08/05 00:18:47;;;;;;;909.78;848.67;;;;;;;30.26;32.72;100609.38;697815;28;21570;-69
2022/08/05 00:19:09;;;;;;;896.90;836.20;;;;;;;30.23;32.42;100608.03;695570;28;69457;-69
2022/08/05 00:19:30;;;;;;;895.00;834.50;;;;;;;30.19;32.58;100607.84;696159;28;46288;-68
2022/08/05 00:19:51;;;;;;;901.75;840.97;;;;;;;30.17;32.59;100607.34;696549;28;22552;-69
2022/08/05 00:20:13;;;;;;;920.85;859.45;;;;;;;30.16;32.82;100614.03;698110;28;22397;-68
2022/08/05 00:20:34;;;;;;;907.45;846.53;;;;;;;30.16;32.76;100611.25;699839;28;21214;-68
2022/08/05 00:20:56;;;;;;;893.00;832.45;;;;;;;30.15;32.68;100608.78;699015;28;44407;-69
2022/08/05 00:21:17;;;;;;;903.10;842.20;;;;;;;30.13;32.69;100609.09;699393;28;44387;-68
2022/08/05 00:21:40;;;;;;;891.25;830.70;;;;;;;30.12;32.69;100613.00;699786;28;23279;-69
2022/08/05 00:22:02;;;;;;;913.20;851.92;;;;;;;30.11;32.66;100607.75;698759;28;66026;-69
2022/08/05 00:22:25;;;;;;;912.92;851.75;;;;;;;30.08;33.07;100606.44;701465;28;1012;-69
2022/08/05 00:22:46;;;;;;;911.78;850.65;;;;;;;30.08;33.15;100612.00;698919;28;44389;-69
2022/08/05 00:23:10;;;;;;;911.30;850.08;;;;;;;30.07;32.71;100612.31;700543;28;22399;-67
2022/08/05 00:23:31;;;;;;;901.70;840.88;;;;;;;29.99;32.67;100597.97;697072;28;115250;-68
2022/08/05 00:23:54;;;;;;;915.45;854.15;;;;;;;30.01;33.18;100604.03;699983;28;21552;-68
2022/08/05 00:24:15;;;;;;;911.22;850.10;;;;;;;30.02;33.04;100608.50;699165;28;46314;-69
2022/08/05 00:24:36;;;;;;;909.85;848.75;;;;;;;30.04;33.25;100615.72;700720;28;21385;-68
2022/08/05 00:24:58;;;;;;;908.50;847.45;;;;;;;29.97;33.29;100603.03;698983;28;44374;-68
2022/08/05 00:25:19;;;;;;;905.78;844.78;;;;;;;30.02;33.26;100608.50;699905;28;45219;-68
2022/08/05 00:25:41;;;;;;;911.60;850.40;;;;;;;29.99;33.20;100597.16;700168;28;22403;-69
2022/08/05 00:26:02;;;;;;;885.97;825.65;;;;;;;30.03;33.05;100609.31;700310;28;22392;-68
2022/08/05 00:26:24;;;;;;;914.03;852.90;;;;;;;30.01;32.76;100606.84;699349;28;44256;-68
2022/08/05 00:26:46;;;;;;;869.80;810.00;;;;;;;30.01;33.24;100604.03;698442;28;46381;-69
2022/08/05 00:27:08;;;;;;;909.92;848.70;;;;;;;30.02;33.16;100607.69;699088;28;23455;-68
2022/08/05 00:27:29;;;;;;;879.15;818.92;;;;;;;29.99;33.17;100609.13;697950;28;46420;-68
2022/08/05 00:27:51;;;;;;;881.75;821.50;;;;;;;30.00;32.74;100608.00;698720;28;22411;-68
2022/08/05 00:28:12;;;;;;;943.20;881.17;;;;;;;29.96;33.21;100592.22;698771;28;46533;-68
2022/08/05 00:28:34;;;;;;;931.08;869.40;;;;;;;29.99;32.89;100608.31;697896;28;46095;-68
2022/08/05 00:28:56;;;;;;;872.40;812.45;;;;;;;29.99;33.26;100605.50;698221;28;46302;-68
2022/08/05 00:29:17;;;;;;;909.22;848.10;;;;;;;29.98;33.45;100610.25;700950;28;23470;-68
2022/08/05 00:29:39;;;;;;;958.80;896.22;;;;;;;29.97;33.45;100605.81;700816;28;23290;-68
2022/08/05 00:30:02;;;;;;;931.22;869.40;;;;;;;29.96;32.98;100604.16;698473;28;46255;-68
2022/08/05 00:30:24;;;;;;;875.53;815.50;;;;;;;29.96;33.31;100606.94;695471;28;67506;-68
2022/08/05 00:30:45;;;;;;;859.45;799.90;;;;;;;29.96;33.17;100608.91;697402;28;19451;-68
2022/08/05 00:31:08;;;;;;;920.47;859.00;;;;;;;29.95;33.26;100604.47;696632;28;45231;-68
2022/08/05 00:31:30;;;;;;;937.80;875.83;;;;;;;29.90;33.46;100597.06;695132;28;67473;-68
2022/08/05 00:31:54;;;;;;;891.08;830.50;;;;;;;29.94;33.18;100609.22;693385;28;46310;-68
2022/08/05 00:32:16;;;;;;;880.55;820.28;;;;;;;29.95;33.00;100601.69;693854;28;93038;-68
2022/08/05 00:32:38;;;;;;;949.05;886.67;;;;;;;29.92;33.51;100593.97;696404;28;23507;-68
2022/08/05 00:32:59;;;;;;;909.72;848.67;;;;;;;29.95;33.49;100607.25;695544;28;69407;-68
2022/08/05 00:33:20;;;;;;;876.55;816.53;;;;;;;29.93;33.12;100602.00;698735;28;22375;-69
2022/08/05 00:33:42;;;;;;;937.92;875.90;;;;;;;29.96;32.98;100604.16;698127;28;23408;-68
2022/08/05 00:34:04;;;;;;;935.38;873.55;;;;;;;29.94;33.06;100598.09;699686;28;22399;-68
2022/08/05 00:34:25;;;;;;;940.70;878.70;;;;;;;29.94;33.33;100597.28;698786;28;67306;-68
2022/08/05 00:34:47;;;;;;;913.42;852.25;;;;;;;29.97;33.31;100607.75;699763;28;22418;-68
2022/08/05 00:35:08;;;;;;;869.75;809.85;;;;;;;29.97;33.46;100604.97;699538;28;46689;-68
2022/08/05 00:35:30;;;;;;;941.38;879.17;;;;;;;29.96;33.30;100606.13;700319;28;23396;-69
2022/08/05 00:35:52;;;;;;;916.85;855.40;;;;;;;29.95;33.30;100601.69;698178;28;46321;-69
2022/08/05 00:36:13;;;;;;;864.25;804.47;;;;;;;29.95;33.58;100604.47;700249;28;22415;-68
2022/08/05 00:36:34;;;;;;;882.60;822.35;;;;;;;29.93;32.99;100606.75;699366;28;22395;-69
2022/08/05 00:36:56;;;;;;;948.40;886.00;;;;;;;29.93;33.60;100606.75;698010;28;45280;-68
2022/08/05 00:37:17;;;;;;;936.75;874.65;;;;;;;29.93;33.48;100603.97;695111;28;67476;-68
2022/08/05 00:37:39;;;;;;;941.25;879.17;;;;;;;29.91;33.66;100603.47;697738;28;22304;-68
2022/08/05 00:38:00;;;;;;;899.50;838.70;;;;;;;29.90;33.65;100610.16;697366;28;22373;-68
2022/08/05 00:38:21;;;;;;;863.47;803.75;;;;;;;29.88;33.26;100604.09;697571;28;23467;-68
2022/08/05 00:38:43;;;;;;;953.58;891.00;;;;;;;29.88;33.81;100604.91;697358;28;22390;-68
2022/08/05 00:39:04;;;;;;;972.20;909.13;;;;;;;29.89;33.38;100605.72;696944;28;46332;-69
2022/08/05 00:39:26;;;;;;;922.28;860.72;;;;;;;29.89;33.24;100611.28;699555;28;44400;-69
2022/08/05 00:39:47;;;;;;;858.72;799.13;;;;;;;29.89;33.84;100612.13;701431;28;23327;-68
2022/08/05 00:40:09;;;;;;;920.00;858.53;;;;;;;29.89;33.33;100608.50;700595;28;22190;-68
2022/08/05 00:40:32;;;;;;;976.65;913.33;;;;;;;29.87;33.51;100613.56;699903;28;46246;-68
2022/08/05 00:40:56;;;;;;;970.03;906.95;;;;;;;29.88;33.25;100610.47;698024;28;69230;-68
2022/08/05 00:41:27;;;;;;;873.60;813.53;;;;;;;29.83;33.42;100603.06;698000;28;91833;-68
2022/08/05 00:41:48;;;;;;;914.40;853.03;;;;;;;29.85;33.78;100610.28;694369;28;157229;-68
2022/08/05 00:42:09;;;;;;;963.80;900.92;;;;;;;29.83;33.49;100608.63;693427;28;19538;-68
2022/08/05 00:42:32;;;;;;;959.85;897.15;;;;;;;29.79;33.35;100599.22;693639;28;21614;-68
2022/08/05 00:42:54;;;;;;;961.10;898.38;;;;;;;29.79;33.41;100607.56;691774;28;69389;-68
2022/08/05 00:43:15;;;;;;;945.67;883.40;;;;;;;29.75;33.74;100605.69;687131;28;46411;-68
2022/08/05 00:43:37;;;;;;;881.72;821.47;;;;;;;29.75;33.49;100603.75;687687;28;23336;-68
2022/08/05 00:43:59;;;;;;;913.00;851.72;;;;;;;29.79;33.47;100606.72;689895;28;22478;-68
2022/08/05 00:44:21;;;;;;;972.78;909.70;;;;;;;29.80;33.58;100605.63;695871;28;67579;-68
2022/08/05 00:44:42;;;;;;;911.38;850.22;;;;;;;29.79;33.34;100601.16;697279;28;21108;-68
2022/08/05 00:45:06;;;;;;;854.20;794.70;;;;;;;29.79;33.68;100606.72;697935;28;21519;-68
2022/08/05 00:45:29;;;;;;;945.42;883.17;;;;;;;29.75;33.58;100609.31;697374;28;114798;-68
2022/08/05 00:45:50;;;;;;;963.85;901.08;;;;;;;29.77;33.26;100609.81;699247;28;67486;-69
2022/08/05 00:46:12;;;;;;;951.58;889.15;;;;;;;29.76;33.46;100605.38;700328;28;22633;-70
2022/08/05 00:46:34;;;;;;;965.42;902.50;;;;;;;29.73;33.71;100606.00;700490;28;5275;-69
2022/08/05 00:46:57;;;;;;;926.78;864.97;;;;;;;29.73;34.04;100603.22;700237;28;1386;-69
2022/08/05 00:47:19;;;;;;;886.33;825.80;;;;;;;29.65;34.23;100598.38;701671;28;1777;-70
2022/08/05 00:47:41;;;;;;;964.83;901.78;;;;;;;29.69;33.82;100612.50;697077;28;1554;-69
2022/08/05 00:48:02;;;;;;;975.33;912.10;;;;;;;29.68;34.14;100606.13;696155;28;23349;-69
2022/08/05 00:48:25;;;;;;;938.33;876.35;;;;;;;29.67;34.05;100610.03;696019;28;46329;-70
2022/08/05 00:48:46;;;;;;;940.15;878.05;;;;;;;29.67;34.43;100604.44;695390;28;46276;-69
2022/08/05 00:49:07;;;;;;;933.65;871.80;;;;;;;29.67;34.14;100610.03;696623;28;22200;-70
2022/08/05 00:49:28;;;;;;;940.15;878.15;;;;;;;29.65;34.28;100607.53;699355;28;23456;-69
2022/08/05 00:49:50;;;;;;;962.40;899.63;;;;;;;29.64;34.67;100610.63;701934;28;22461;-70
2022/08/05 00:50:12;;;;;;;960.38;897.53;;;;;;;29.62;34.68;100602.63;703086;28;32011;-68
2022/08/05 00:50:34;;;;;;;933.60;871.65;;;;;;;29.61;34.39;100612.09;701698;28;69373;-69
2022/08/05 00:50:55;;;;;;;943.03;880.83;;;;;;;29.60;34.50;100604.06;701537;28;23464;-68
2022/08/05 00:51:17;;;;;;;927.50;865.90;;;;;;;29.62;34.74;100604.56;702642;28;21550;-70
2022/08/05 00:51:41;;;;;;;937.05;875.08;;;;;;;29.63;34.71;100606.22;699353;28;46308;-69
2022/08/05 00:52:03;;;;;;;950.70;888.30;;;;;;;29.62;34.78;100599.84;697999;28;92264;-69
2022/08/05 00:52:24;;;;;;;950.20;887.85;;;;;;;29.61;34.49;100603.75;698499;28;4789;-70
2022/08/05 00:52:46;;;;;;;954.63;892.13;;;;;;;29.60;34.55;100599.31;694292;28;23077;-68
2022/08/05 00:53:08;;;;;;;960.70;898.00;;;;;;;29.59;34.40;100596.84;693597;28;45282;-68
2022/08/05 00:53:29;;;;;;;965.75;902.83;;;;;;;29.58;34.32;100598.00;692744;28;45261;-68
2022/08/05 00:53:51;;;;;;;971.55;908.42;;;;;;;29.54;34.70;100599.72;693264;28;22393;-68
2022/08/05 00:54:13;;;;;;;976.55;913.35;;;;;;;29.52;34.41;100596.44;693595;28;44540;-68
2022/08/05 00:54:34;;;;;;;969.58;906.63;;;;;;;29.53;34.32;100595.28;698341;28;22375;-68
2022/08/05 00:54:55;;;;;;;964.00;901.17;;;;;;;29.49;34.41;100595.09;698416;28;45043;-68
2022/08/05 00:55:16;;;;;;;964.80;902.03;;;;;;;29.50;34.15;100598.69;701074;28;21529;-70
2022/08/05 00:55:38;;;;;;;965.28;902.50;;;;;;;29.50;34.31;100598.69;699953;28;22600;-69
2022/08/05 00:56:00;;;;;;;955.72;893.22;;;;;;;29.49;34.29;100597.88;699361;28;46406;-69
2022/08/05 00:56:21;;;;;;;963.45;900.70;;;;;;;29.42;34.64;100587.16;699740;28;44337;-68
2022/08/05 00:56:43;;;;;;;952.85;890.42;;;;;;;29.48;34.12;100596.22;698716;28;46305;-69
2022/08/05 00:57:04;;;;;;;958.88;896.10;;;;;;;29.48;34.24;100596.22;698734;28;44532;-70
2022/08/05 00:57:26;;;;;;;958.05;895.30;;;;;;;29.47;34.90;100598.19;700897;28;23956;-70
2022/08/05 00:57:47;;;;;;;954.90;892.33;;;;;;;29.44;34.30;100598.78;699762;28;22391;-68
2022/08/05 00:58:09;;;;;;;945.20;883.00;;;;;;;29.43;34.54;100599.91;700238;28;45204;-68
2022/08/05 00:58:31;;;;;;;950.67;888.35;;;;;;;29.45;34.37;100602.38;699308;28;67512;-68
2022/08/05 00:58:52;;;;;;;965.90;903.03;;;;;;;29.44;34.79;100596.00;700107;28;22245;-68
2022/08/05 00:59:14;;;;;;;967.42;904.35;;;;;;;29.45;34.43;100605.16;699361;28;44364;-68
2022/08/05 00:59:36;;;;;;;976.10;912.80;;;;;;;29.43;34.60;100604.66;700374;28;23281;-68
2022/08/05 00:59:57;;;;;;;979.60;916.17;;;;;;;29.41;34.75;100607.75;698704;28;46643;-68
2022/08/05 01:00:19;;;;;;;976.85;913.45;;;;;;;29.41;34.46;100610.53;697684;28;22185;-67
2022/08/05 01:00:41;;;;;;;971.35;908.25;;;;;;;29.37;34.18;100600.31;695369;28;69430;-68
2022/08/05 01:01:04;;;;;;;957.67;894.97;;;;;;;29.37;34.86;100601.16;697039;28;22208;-68
2022/08/05 01:01:25;;;;;;;968.10;905.08;;;;;;;29.35;34.68;100608.97;695369;28;67237;-68
2022/08/05 01:01:46;;;;;;;963.78;900.88;;;;;;;29.34;34.56;100612.06;697843;28;22380;-69
2022/08/05 01:02:07;;;;;;;958.45;895.75;;;;;;;29.30;35.20;100598.78;695689;28;21183;-68
2022/08/05 01:02:29;;;;;;;956.72;894.17;;;;;;;29.28;35.24;100606.59;697546;28;22424;-68
2022/08/05 01:02:50;;;;;;;947.73;885.43;;;;;;;29.29;34.99;100605.47;694980;28;68298;-69
2022/08/05 01:03:15;;;;;;;955.67;892.97;;;;;;;29.27;34.86;100604.94;696906;28;37405;-69
2022/08/05 01:03:37;;;;;;;959.35;896.63;;;;;;;29.26;34.71;100602.47;697642;28;22362;-68
2022/08/05 01:03:58;;;;;;;952.20;889.72;;;;;;;29.26;35.37;100608.03;696969;28;43456;-68
2022/08/05 01:04:20;;;;;;;963.17;900.30;;;;;;;29.25;35.16;100606.41;700657;28;22640;-68
2022/08/05 01:04:44;;;;;;;955.75;892.88;;;;;;;29.26;35.43;100610.81;698331;28;36822;-68
2022/08/05 01:05:07;;;;;;;958.80;896.00;;;;;;;29.23;35.35;100611.44;699738;28;21126;-68
2022/08/05 01:05:29;;;;;;;954.00;891.50;;;;;;;29.25;35.21;100614.75;698793;28;70181;-69
2022/08/05 01:05:50;;;;;;;956.60;893.90;;;;;;;29.24;34.96;100613.91;698763;28;46390;-68
2022/08/05 01:06:14;;;;;;;959.55;896.72;;;;;;;29.23;34.65;100614.22;697499;28;92263;-69
2022/08/05 01:06:39;;;;;;;957.05;894.40;;;;;;;29.22;34.95;100616.16;699444;28;23479;-68
2022/08/05 01:07:00;;;;;;;955.58;892.85;;;;;;;29.19;35.09;100615.94;696243;28;113539;-69
2022/08/05 01:07:24;;;;;;;952.38;889.78;;;;;;;29.20;34.88;100626.78;700479;28;23499;-68
2022/08/05 01:07:46;;;;;;;955.97;893.38;;;;;;;29.19;35.03;100622.34;697249;28;92114;-68
2022/08/05 01:08:07;;;;;;;958.70;895.88;;;;;;;29.18;35.16;100620.66;700449;28;21284;-69
2022/08/05 01:08:29;;;;;;;958.28;895.63;;;;;;;29.14;35.33;100622.41;699946;28;47261;-68
2022/08/05 01:08:50;;;;;;;959.85;897.05;;;;;;;29.15;35.63;100623.22;699049;28;46262;-68
2022/08/05 01:09:11;;;;;;;953.58;890.97;;;;;;;29.16;35.17;100627.66;700851;28;22378;-68
2022/08/05 01:09:33;;;;;;;956.28;893.58;;;;;;;29.15;35.16;100639.91;700547;28;24331;-68
2022/08/05 01:09:54;;;;;;;956.67;893.97;;;;;;;29.06;35.45;100620.31;700016;28;22402;-68
2022/08/05 01:10:18;;;;;;;961.28;898.50;;;;;;;29.04;35.44;100623.41;700833;28;23520;-68
2022/08/05 01:10:43;;;;;;;972.72;909.55;;;;;;;29.08;35.36;100634.75;697412;28;115072;-69
2022/08/05 01:11:11;;;;;;;970.65;907.50;;;;;;;29.06;35.28;100635.06;696809;28;116057;-68
2022/08/05 01:11:36;;;;;;;973.47;910.17;;;;;;;29.01;35.33;100640.69;695276;28;135861;-70
2022/08/05 01:12:00;;;;;;;974.03;910.65;;;;;;;28.93;35.37;100628.34;696855;28;92062;-69
2022/08/05 01:12:22;;;;;;;954.42;891.78;;;;;;;28.98;35.83;100638.50;694764;28;92270;-70
2022/08/05 01:12:47;;;;;;;933.53;871.60;;;;;;;28.97;35.85;100636.06;696187;28;46263;-70
2022/08/05 01:13:14;;;;;;;944.50;882.20;;;;;;;28.96;35.82;100637.19;693917;28;115121;-70
2022/08/05 01:13:46;;;;;;;944.97;882.75;;;;;;;28.91;35.35;100625.00;692958;28;120538;-70
2022/08/05 01:14:12;;;;;;;940.33;878.22;;;;;;;28.92;35.84;100620.28;692279;28;160886;-70
2022/08/05 01:14:38;;;;;;;938.25;876.28;;;;;;;28.86;35.78;100613.97;699274;28;60054;-70
2022/08/05 01:15:04;;;;;;;942.15;879.95;;;;;;;28.89;35.78;100613.38;696023;28;116176;-70
2022/08/05 01:15:31;;;;;;;934.75;872.85;;;;;;;28.90;35.33;100616.97;696747;28;138554;-68
2022/08/05 01:15:56;;;;;;;951.60;889.13;;;;;;;28.91;35.50;100619.44;695539;28;137843;-69
2022/08/05 01:16:22;;;;;;;966.72;903.83;;;;;;;28.92;35.40;100620.28;697580;28;113510;-68
2022/08/05 01:16:49;;;;;;;969.30;906.20;;;;;;;28.92;35.28;100617.50;693651;28;158321;-69
2022/08/05 01:17:14;;;;;;;968.80;905.70;;;;;;;28.91;35.80;100619.44;695882;28;137945;-68
2022/08/05 01:17:38;;;;;;;961.88;899.05;;;;;;;28.92;35.91;100635.00;696825;28;115267;-68
2022/08/05 01:18:03;;;;;;;961.45;898.60;;;;;;;28.90;35.91;100630.88;697777;28;92178;-68
2022/08/05 01:18:29;;;;;;;962.78;899.88;;;;;;;28.90;35.80;100631.72;696773;28;116459;-68
2022/08/05 01:18:55;;;;;;;969.22;906.15;;;;;;;28.89;35.83;100630.06;695214;28;136316;-69
2022/08/05 01:19:24;;;;;;;966.08;903.08;;;;;;;28.86;35.85;100621.50;696626;28;138082;-68
2022/08/05 01:19:50;;;;;;;959.25;896.45;;;;;;;28.88;36.00;100622.03;695670;28;136530;-68
2022/08/05 01:20:18;;;;;;;968.47;905.38;;;;;;;28.84;36.08;100615.41;695742;28;136676;-68
2022/08/05 01:20:50;;;;;;;976.65;913.25;;;;;;;28.88;35.52;100622.84;695794;28;137895;-68
2022/08/05 01:21:18;;;;;;;975.38;912.00;;;;;;;28.89;36.03;100621.72;695916;28;138612;-68
2022/08/05 01:22:10;;;;;;;983.45;919.78;;;;;;;28.89;35.44;100627.28;696456;28;137835;-68
2022/08/05 01:22:43;;;;;;;974.35;911.00;;;;;;;28.89;35.89;100623.69;687916;28;137689;-68
2022/08/05 01:23:12;;;;;;;956.95;894.25;;;;;;;28.88;35.75;100622.84;687707;28;137764;-69
2022/08/05 01:23:45;;;;;;;957.15;894.45;;;;;;;28.88;35.92;100627.56;695634;28;160758;-68
2022/08/05 01:24:23;;;;;;;974.28;910.95;;;;;;;28.86;35.94;100624.28;696345;28;137545;-67
2022/08/05 01:25:08;;;;;;;985.90;922.20;;;;;;;28.83;35.73;100627.66;695863;28;136021;-68
2022/08/05 01:25:52;;;;;;;981.58;917.97;;;;;;;28.81;36.17;100622.41;696053;28;137629;-68
2022/08/05 01:26:25;;;;;;;960.90;898.08;;;;;;;28.78;35.58;100628.56;695607;28;160892;-67
2022/08/05 01:26:56;;;;;;;954.70;892.00;;;;;;;28.76;35.91;100626.09;696318;28;157263;-68
2022/08/05 01:27:28;;;;;;;960.88;897.80;;;;;;;28.73;35.61;100621.16;696558;28;137361;-68
2022/08/05 01:28:09;;;;;;;957.10;894.35;;;;;;;28.71;35.69;100620.59;696289;28;136015;-68
2022/08/05 01:28:35;;;;;;;962.17;899.28;;;;;;;28.73;36.00;100634.19;695480;28;160682;-68
2022/08/05 01:28:57;;;;;;;957.88;895.13;;;;;;;28.72;35.78;100635.34;696515;28;138213;-68
2022/08/05 01:29:25;;;;;;;970.70;907.53;;;;;;;28.71;36.35;100633.69;698854;28;67479;-68
2022/08/05 01:29:48;;;;;;;964.28;901.28;;;;;;;28.69;36.07;100633.16;696161;28;138343;-68
2022/08/05 01:30:10;;;;;;;972.10;908.80;;;;;;;28.70;36.02;100632.00;698466;28;69471;-68
2022/08/05 01:30:33;;;;;;;980.13;916.60;;;;;;;28.69;36.69;100631.19;699594;28;45256;-68
2022/08/05 01:31:01;;;;;;;985.60;921.90;;;;;;;28.68;36.45;100634.28;698067;28;69293;-68
2022/08/05 01:31:25;;;;;;;982.97;919.38;;;;;;;28.67;36.42;100630.69;696593;28;110286;-70
2022/08/05 01:31:49;;;;;;;983.67;920.00;;;;;;;28.65;36.11;100629.31;696538;28;111931;-69
2022/08/05 01:32:11;;;;;;;974.95;911.58;;;;;;;28.67;36.22;100629.84;697406;28;92237;-68
2022/08/05 01:32:35;;;;;;;973.85;910.40;;;;;;;28.66;36.32;100628.22;699527;28;45227;-69
2022/08/05 01:32:58;;;;;;;960.72;897.72;;;;;;;28.67;36.63;100629.84;697456;28;92405;-69
2022/08/05 01:33:22;;;;;;;961.30;898.30;;;;;;;28.63;36.59;100632.41;699365;28;44378;-69
2022/08/05 01:33:47;;;;;;;966.38;903.35;;;;;;;28.64;36.68;100636.84;698041;28;115090;-68
2022/08/05 01:34:11;;;;;;;973.95;910.65;;;;;;;28.62;36.30;100641.88;696750;28;114952;-67
2022/08/05 01:34:38;;;;;;;983.25;919.63;;;;;;;28.64;36.66;100641.59;697616;28;92270;-67
2022/08/05 01:35:01;;;;;;;981.33;917.70;;;;;;;28.64;36.56;100642.41;695789;28;161432;-66
2022/08/05 01:35:26;;;;;;;987.88;924.08;;;;;;;28.56;36.14;100632.75;697873;28;90087;-68
2022/08/05 01:35:48;;;;;;;967.30;904.20;;;;;;;28.62;36.29;100641.03;696538;28;114752;-68
2022/08/05 01:36:14;;;;;;;968.15;904.97;;;;;;;28.61;36.75;100640.22;698622;28;69052;-68
2022/08/05 01:36:38;;;;;;;965.35;902.40;;;;;;;28.60;36.27;100635.78;696657;28;115270;-68
2022/08/05 01:37:03;;;;;;;973.67;910.35;;;;;;;28.57;36.79;100639.13;697141;28;91417;-68
2022/08/05 01:37:30;;;;;;;981.75;918.00;;;;;;;28.58;36.17;100638.06;695962;28;137929;-68
2022/08/05 01:37:54;;;;;;;979.58;916.15;;;;;;;28.57;36.80;100639.13;694409;28;137935;-68
2022/08/05 01:38:16;;;;;;;973.90;910.72;;;;;;;28.54;36.31;100623.91;697626;28;90373;-69
2022/08/05 01:38:37;;;;;;;966.58;903.55;;;;;;;28.54;36.77;100634.19;699527;28;45344;-69
2022/08/05 01:38:59;;;;;;;956.63;893.97;;;;;;;28.54;36.38;100634.19;696244;28;44387;-68
2022/08/05 01:39:21;;;;;;;959.60;896.80;;;;;;;28.52;36.44;100625.31;697775;28;22363;-69
2022/08/05 01:39:46;;;;;;;966.08;903.03;;;;;;;28.53;36.39;100629.78;695439;28;69617;-68
2022/08/05 01:40:09;;;;;;;970.35;907.15;;;;;;;28.51;36.26;100623.66;695940;28;79015;-69
2022/08/05 01:40:31;;;;;;;964.85;901.80;;;;;;;28.50;36.81;100631.19;694935;28;67356;-69
2022/08/05 01:40:54;;;;;;;967.13;903.97;;;;;;;28.51;36.33;100632.00;699423;28;1513;-69
2022/08/05 01:41:17;;;;;;;963.78;900.78;;;;;;;28.47;36.43;100628.19;699350;28;45186;-67
2022/08/05 01:41:39;;;;;;;969.83;906.63;;;;;;;28.51;36.87;100630.06;697934;28;69239;-68
2022/08/05 01:42:01;;;;;;;974.17;910.88;;;;;;;28.50;36.69;100633.16;698866;28;45220;-69
2022/08/05 01:42:25;;;;;;;978.72;915.30;;;;;;;28.51;36.55;100632.00;697325;28;69310;-68
2022/08/05 01:42:48;;;;;;;982.22;918.70;;;;;;;28.48;36.82;100618.72;698167;28;69460;-69
2022/08/05 01:43:12;;;;;;;988.72;924.85;;;;;;;28.50;36.80;100628.41;698577;28;69778;-70
2022/08/05 01:43:35;;;;;;;982.10;918.55;;;;;;;28.49;36.94;100623.16;695663;28;92131;-68
2022/08/05 01:43:57;;;;;;;970.50;907.30;;;;;;;28.52;36.45;100628.94;698642;28;70119;-70